Time;durP1;ratioP1;P1;durP2;ratioP2;P2;SDS_P1;SDS_P2;PMS_P1;PMS_P2;Temp;Humidity;BMP_temperature;BMP_pressure;BME280_temperature;BME280_humidity;BME280_pressure;Samples;Min_cycle;Max_cycle;Signal;HPM_P1;HPM_P2
2022/07/03 00:00:43;;;;;;;7.45;4.75;;;16.70;99.90;;;15.76;100.00;101717.09;4975707;28;20045;-76
2022/07/03 00:03:09;;;;;;;7.32;5.35;;;16.60;99.90;;;15.74;100.00;101716.34;4981194;28;20029;-74
2022/07/03 00:05:36;;;;;;;11.52;5.10;;;16.60;99.90;;;15.73;100.00;101714.59;4984392;28;20033;-75
2022/07/03 00:08:04;;;;;;;12.63;5.35;;;16.60;99.90;;;15.67;100.00;101720.19;4945745;28;20049;-74
2022/07/03 00:10:30;;;;;;;10.32;5.57;;;16.60;99.90;;;15.64;100.00;101719.53;4977553;28;20025;-74
2022/07/03 00:12:55;;;;;;;10.43;5.53;;;16.50;99.90;;;15.57;100.00;101714.53;4972713;28;20026;-75
2022/07/03 00:15:21;;;;;;;9.23;5.47;;;16.50;99.90;;;15.51;100.00;101716.63;4982027;28;20046;-74
2022/07/03 00:17:47;;;;;;;;;;;16.50;99.90;;;15.47;100.00;101721.25;4972381;28;20050;-75
2022/07/03 00:20:13;;;;;;;12.60;5.85;;;16.50;99.90;;;15.45;100.00;101720.47;4974906;28;20386;-75
2022/07/03 00:22:43;;;;;;;10.98;5.68;;;16.50;99.90;;;15.51;100.00;101724.59;4976595;28;20026;-74
2022/07/03 00:25:13;;;;;;;12.77;5.65;;;16.50;99.90;;;15.53;100.00;101712.13;4980412;28;20023;-74
2022/07/03 00:27:39;;;;;;;13.48;5.68;;;16.50;99.90;;;15.53;100.00;101717.41;4980177;28;20405;-75
2022/07/03 00:30:10;;;;;;;17.27;5.70;;;16.40;99.90;;;15.52;100.00;101710.38;4973728;28;20026;-75
2022/07/03 00:32:41;;;;;;;9.10;5.70;;;16.40;99.90;;;15.51;100.00;101706.88;4996362;28;20045;-74
2022/07/03 00:35:08;;;;;;;14.70;5.75;;;16.40;99.90;;;15.54;100.00;101705.84;4980579;28;20440;-74
2022/07/03 00:37:34;;;;;;;12.93;5.25;;;16.50;99.90;;;15.55;100.00;101696.94;4968424;28;20402;-75
2022/07/03 00:40:00;;;;;;;11.45;5.72;;;16.40;99.90;;;15.51;100.00;101693.59;4964233;28;20081;-76
2022/07/03 00:42:27;;;;;;;8.73;5.43;;;16.40;99.90;;;15.51;100.00;101692.75;4981383;28;20035;-75
2022/07/03 00:44:56;;;;;;;13.70;5.85;;;16.40;99.90;;;15.48;100.00;101692.91;4971920;28;20030;-75
2022/07/03 00:47:27;;;;;;;8.43;5.10;;;16.40;99.90;;;15.48;100.00;101685.78;4977053;28;20453;-75
2022/07/03 00:49:57;;;;;;;10.23;5.57;;;16.40;99.90;;;15.46;100.00;101686.81;4990059;28;20673;-76
2022/07/03 00:52:23;;;;;;;10.50;5.60;;;16.40;99.90;;;15.45;100.00;101685.09;4948475;28;20088;-75
2022/07/03 00:54:57;;;;;;;11.43;5.40;;;16.40;99.90;;;15.42;100.00;101690.56;4980501;28;20058;-75
2022/07/03 00:57:26;;;;;;;9.55;5.50;;;16.30;99.90;;;15.37;100.00;101683.69;4966944;28;20471;-75
2022/07/03 00:59:53;;;;;;;11.93;5.93;;;16.30;99.90;;;15.31;100.00;101689.34;4964314;28;20057;-75
2022/07/03 01:02:40;;;;;;;8.95;5.10;;;16.20;99.90;;;15.22;100.00;101680.97;4987886;28;20030;-75
2022/07/03 01:05:32;;;;;;;9.93;5.50;;;16.20;99.90;;;15.11;100.00;101678.84;4971616;28;20030;-75
2022/07/03 01:08:18;;;;;;;14.40;5.22;;;16.10;99.90;;;15.16;100.00;101677.69;4965875;28;20080;-75
2022/07/03 01:11:08;;;;;;;9.88;5.10;;;16.10;99.90;;;15.12;100.00;101670.84;4972046;28;20528;-75
2022/07/03 01:13:57;;;;;;;9.23;4.78;;;16.10;99.90;;;15.10;100.00;101671.84;4982557;28;20041;-75
2022/07/03 01:17:03;;;;;;;9.20;4.45;;;16.10;99.90;;;15.05;100.00;101671.19;4973556;28;20023;-75
2022/07/03 01:19:32;;;;;;;13.32;4.88;;;16.00;99.90;;;15.02;100.00;101664.25;4974419;28;20039;-76
2022/07/03 01:22:18;;;;;;;9.60;4.72;;;16.00;99.90;;;15.03;100.00;101667.78;4984393;28;20039;-76
2022/07/03 01:25:35;;;;;;;9.90;4.40;;;15.90;99.90;;;14.96;100.00;101665.41;4974081;28;20030;-75
2022/07/03 01:28:01;;;;;;;6.73;4.40;;;15.90;99.90;;;14.89;100.00;101664.03;4966123;28;20057;-75
2022/07/03 01:30:35;;;;;;;;;;;15.90;99.90;;;14.83;100.00;101661.66;4993580;28;20049;-75
2022/07/03 01:33:28;;;;;;;9.40;4.35;;;15.90;99.90;;;14.81;100.00;101662.69;4960716;28;20635;-76
2022/07/03 01:36:05;;;;;;;10.00;4.90;;;15.80;99.90;;;14.83;100.00;101659.00;4943058;28;20044;-76
2022/07/03 01:38:37;;;;;;;9.43;4.40;;;15.80;99.90;;;14.82;100.00;101659.97;4951743;28;20494;-76
2022/07/03 01:41:07;;;;;;;6.45;3.97;;;15.80;99.90;;;14.82;100.00;101651.16;4964563;28;20121;-76
2022/07/03 01:43:47;;;;;;;9.25;4.47;;;15.80;99.90;;;14.82;100.00;101656.47;4957281;28;20763;-76
2022/07/03 01:46:16;;;;;;;5.55;3.95;;;15.80;99.90;;;14.86;100.00;101661.53;4957153;28;20104;-77
2022/07/03 01:48:44;;;;;;;6.68;3.90;;;15.80;99.90;;;14.86;100.00;101658.88;4979948;28;20026;-76
2022/07/03 01:51:14;;;;;;;7.07;3.90;;;15.80;99.90;;;14.91;100.00;101659.50;4972910;28;20049;-76
2022/07/03 01:53:46;;;;;;;7.97;4.47;;;15.80;99.90;;;14.90;100.00;101652.50;4966336;28;20101;-76
2022/07/03 01:56:12;;;;;;;9.82;4.15;;;15.90;99.90;;;14.87;100.00;101657.09;4965939;28;20053;-76
2022/07/03 01:58:38;;;;;;;8.85;4.43;;;15.80;99.90;;;14.88;100.00;101657.00;4973616;28;20619;-75
2022/07/03 02:01:16;;;;;;;10.63;4.20;;;15.80;99.90;;;14.83;100.00;101659.00;4966190;28;20038;-75
2022/07/03 02:03:54;;;;;;;8.57;4.30;;;15.80;99.90;;;14.78;100.00;101655.75;4978571;28;20049;-76
2022/07/03 02:06:41;;;;;;;10.25;4.28;;;15.70;99.90;;;14.74;100.00;101659.47;4974657;28;20022;-76
2022/07/03 02:09:10;;;;;;;7.70;4.40;;;15.70;99.90;;;14.64;100.00;101653.75;4972408;28;20517;-76
2022/07/03 02:11:39;;;;;;;6.55;4.57;;;15.60;99.90;;;14.59;100.00;101657.59;5000064;28;20065;-76
2022/07/03 02:14:16;;;;;;;10.52;4.78;;;15.60;99.90;;;14.50;100.00;101662.34;4951465;28;20034;-76
2022/07/03 02:17:13;;;;;;;9.32;4.43;;;15.50;99.90;;;14.45;100.00;101656.44;4960921;28;20080;-76
2022/07/03 02:20:02;;;;;;;7.07;4.68;;;15.50;99.90;;;14.41;100.00;101668.09;4968293;28;20036;-76
2022/07/03 02:23:01;;;;;;;9.23;4.53;;;15.40;99.90;;;14.40;100.00;101665.53;4980130;28;21653;-76
2022/07/03 02:25:34;;;;;;;8.85;4.80;;;15.40;99.90;;;14.30;100.00;101660.66;4983494;28;20500;-76
2022/07/03 02:28:38;;;;;;;12.80;4.55;;;15.30;99.90;;;14.32;100.00;101657.97;4990803;28;20474;-78
2022/07/03 02:31:07;;;;;;;8.10;4.70;;;15.30;99.90;;;14.25;100.00;101661.81;4971212;28;20030;-76
2022/07/03 02:33:38;;;;;;;6.40;4.50;;;15.30;99.90;;;14.24;100.00;101660.09;4960275;28;20034;-76
2022/07/03 02:36:09;;;;;;;7.57;4.95;;;15.30;99.90;;;14.28;100.00;101666.97;4987197;28;20022;-77
2022/07/03 02:38:35;;;;;;;10.77;4.63;;;15.30;99.90;;;14.30;100.00;101665.97;4969278;28;20029;-76
2022/07/03 02:41:15;;;;;;;7.55;4.72;;;15.20;99.90;;;14.30;100.00;101662.47;4982435;28;20034;-76
2022/07/03 02:43:52;;;;;;;9.63;4.70;;;15.20;99.90;;;14.25;100.00;101661.81;4984902;28;20037;-76
2022/07/03 02:46:51;;;;;;;9.50;5.15;;;15.20;99.90;;;14.20;100.00;101659.38;4978480;28;20049;-76
2022/07/03 02:49:43;;;;;;;9.25;4.60;;;15.20;99.90;;;14.23;100.00;101653.91;4984058;28;20434;-76
2022/07/03 02:52:38;;;;;;;10.80;4.22;;;15.20;99.90;;;14.23;100.00;101659.22;4983687;28;20525;-76
2022/07/03 02:55:44;;;;;;;12.07;4.82;;;15.20;99.90;;;14.18;100.00;101655.09;4975273;28;20030;-77
2022/07/03 02:58:24;;;;;;;5.80;4.75;;;15.20;99.90;;;14.19;100.00;101654.13;4963415;28;20037;-76
2022/07/03 03:01:00;;;;;;;7.68;5.13;;;15.10;99.90;;;14.12;100.00;101658.88;4984022;28;20069;-76
2022/07/03 03:03:30;;;;;;;6.28;4.32;;;15.10;99.90;;;14.13;100.00;101653.50;4982611;28;20053;-76
2022/07/03 03:06:04;;;;;;;15.50;5.38;;;15.10;99.90;;;14.13;100.00;101650.00;5005119;28;20034;-76
2022/07/03 03:08:47;;;;;;;10.52;5.18;;;15.10;99.90;;;14.23;100.00;101647.78;4977387;28;20482;-76
2022/07/03 03:11:33;;;;;;;10.77;5.05;;;15.20;99.90;;;14.28;100.00;101654.59;4974113;28;20441;-77
2022/07/03 03:14:04;;;;;;;5.80;4.22;;;15.20;99.90;;;14.31;100.00;101653.56;4982895;28;20030;-76
2022/07/03 03:16:29;;;;;;;14.18;4.90;;;15.20;99.90;;;14.37;100.00;101647.97;4983074;28;20578;-76
2022/07/03 03:18:56;;;;;;;11.43;5.00;;;15.30;99.90;;;14.39;100.00;101646.13;4979466;28;20065;-76
2022/07/03 03:21:26;;;;;;;12.38;5.07;;;15.30;99.90;;;14.39;100.00;101640.81;4977634;28;20042;-77
2022/07/03 03:23:52;;;;;;;8.05;4.80;;;15.30;99.90;;;14.41;100.00;101641.59;4982388;28;20536;-75
2022/07/03 03:26:30;;;;;;;6.03;4.78;;;15.30;99.90;;;14.43;100.00;101645.03;4958961;28;20037;-76
2022/07/03 03:28:56;;;;;;;9.18;4.47;;;15.30;99.90;;;14.44;100.00;101640.59;4968039;28;20034;-76
2022/07/03 03:31:22;;;;;;;12.20;4.75;;;15.40;99.90;;;14.51;100.00;101642.00;4976886;28;20073;-76
2022/07/03 03:33:50;;;;;;;8.27;4.38;;;15.50;99.90;;;14.60;100.00;101641.63;4973461;28;20544;-76
2022/07/03 03:36:19;;;;;;;8.23;4.85;;;15.50;99.90;;;14.60;100.00;101638.09;4958721;28;20053;-76
2022/07/03 03:38:47;;;;;;;10.23;4.88;;;15.50;99.90;;;14.55;100.00;101633.00;4980663;28;20104;-77
2022/07/03 03:41:13;;;;;;;12.15;5.05;;;15.50;99.90;;;14.71;100.00;101633.97;4974471;28;20060;-75
2022/07/03 03:43:39;;;;;;;9.55;4.88;;;15.80;99.90;;;15.07;100.00;101629.56;4949372;28;20023;-75
2022/07/03 03:46:05;;;;;;;10.93;4.95;;;17.30;99.90;;;16.46;96.89;101631.81;4958596;28;20040;-76
2022/07/03 03:48:33;;;;;;;5.70;4.07;;;18.80;99.90;;;18.03;86.88;101638.41;4980605;28;20034;-76
2022/07/03 03:51:01;;;;;;;8.43;4.32;;;20.10;99.90;;;19.49;78.36;101638.56;4981363;28;20037;-76
2022/07/03 03:53:29;;;;;;;9.18;4.55;;;21.30;99.90;;;20.58;71.95;101644.13;4949650;28;20033;-76
2022/07/03 03:56:03;;;;;;;10.25;4.10;;;22.30;99.90;;;21.30;67.48;101655.59;4974554;28;20043;-76
2022/07/03 03:58:31;;;;;;;11.77;4.70;;;23.20;99.90;;;22.38;64.07;101659.66;4979212;28;20053;-76
2022/07/03 04:00:59;;;;;;;8.55;3.90;;;23.80;99.90;;;22.89;61.93;101659.84;4967800;28;20053;-75
2022/07/03 04:03:26;;;;;;;8.80;4.07;;;24.20;99.90;;;23.18;60.02;101661.94;4999438;28;20489;-76
2022/07/03 04:05:53;;;;;;;6.40;3.42;;;24.70;99.90;;;23.76;59.15;101669.50;4984794;28;20114;-76
2022/07/03 04:08:21;;;;;;;7.75;3.47;;;25.20;99.70;;;24.18;56.95;101674.75;4979147;28;20038;-75
2022/07/03 04:10:48;;;;;;;7.03;3.85;;;25.30;99.30;;;24.20;56.97;101670.06;4992559;28;20073;-76
2022/07/03 04:13:16;;;;;;;8.90;3.80;;;25.80;98.50;;;24.86;55.25;101674.00;4992631;28;20030;-76
2022/07/03 04:15:42;;;;;;;6.45;3.85;;;25.90;97.10;;;24.76;54.56;101674.03;4985229;28;20108;-76
2022/07/03 04:18:08;;;;;;;8.07;3.67;;;26.50;96.80;;;25.86;52.26;101676.25;4977102;28;20533;-76
2022/07/03 04:20:35;;;;;;;13.50;3.90;;;26.30;95.90;;;25.16;53.33;101671.16;4976369;28;20054;-76
2022/07/03 04:23:01;;;;;;;14.43;3.72;;;26.70;95.90;;;26.06;51.48;101678.88;4974535;28;20395;-76
2022/07/03 04:25:27;;;;;;;9.02;3.63;;;27.00;95.80;;;26.63;50.22;101676.00;4965035;28;20031;-76
2022/07/03 04:27:53;;;;;;;9.23;3.20;;;27.30;94.90;;;26.97;48.96;101690.50;4966312;28;20459;-76
2022/07/03 04:30:19;;;;;;;6.82;3.42;;;27.20;94.20;;;26.50;49.11;101684.44;4990748;28;20094;-74
2022/07/03 04:32:46;;;;;;;6.43;3.28;;;27.50;94.50;;;27.23;48.50;101689.72;4997143;28;20039;-73
2022/07/03 04:35:12;;;;;;;11.02;3.80;;;27.90;94.10;;;27.86;46.94;101690.47;4974535;28;20057;-74
2022/07/03 04:37:38;;;;;;;9.48;3.53;;;28.50;93.70;;;28.90;44.85;101694.69;4996049;28;20045;-73
2022/07/03 04:40:05;;;;;;;9.00;3.90;;;28.90;92.60;;;29.34;44.00;101699.81;4966097;28;20050;-74
2022/07/03 04:42:31;;;;;;;7.70;3.83;;;29.30;92.20;;;29.76;42.93;101713.16;4966366;28;20049;-73
2022/07/03 04:44:56;;;;;;;10.25;3.78;;;29.60;91.40;;;29.82;42.56;101707.00;4980989;28;20037;-73
2022/07/03 04:47:22;;;;;;;10.13;3.50;;;29.70;91.90;;;30.60;41.22;101712.59;4966430;28;20470;-73
2022/07/03 04:49:48;;;;;;;9.13;3.38;;;30.00;90.70;;;30.32;41.01;101712.25;4981546;28;20418;-73
2022/07/03 04:52:14;;;;;;;8.80;3.40;;;30.30;90.40;;;30.95;40.53;101713.94;4981423;28;20117;-73
2022/07/03 04:54:39;;;;;;;7.00;3.40;;;30.40;90.60;;;30.97;40.32;101724.59;4969773;28;20480;-73
2022/07/03 04:57:05;;;;;;;11.32;3.20;;;30.20;90.50;;;30.88;40.68;101720.25;4966614;28;20046;-73
2022/07/03 04:59:31;;;;;;;8.40;3.40;;;30.20;89.90;;;30.98;40.02;101723.59;4980175;28;20481;-74
2022/07/03 05:01:57;;;;;;;7.47;3.95;;;30.20;88.40;;;30.60;40.12;101715.31;4974621;28;20037;-73
2022/07/03 05:04:23;;;;;;;8.68;3.45;;;29.70;89.50;;;29.73;41.45;101713.47;5001911;28;20112;-74
2022/07/03 05:06:49;;;;;;;8.88;3.47;;;29.80;89.70;;;30.86;40.33;101728.59;4975133;28;20101;-74
2022/07/03 05:09:15;;;;;;;7.05;3.88;;;30.20;89.80;;;31.85;38.46;101742.16;4966918;28;20383;-74
2022/07/03 05:11:41;;;;;;;10.55;3.60;;;30.80;89.00;;;32.77;37.41;101740.84;4981171;28;20026;-74
2022/07/03 05:14:07;;;;;;;10.20;3.42;;;31.20;87.20;;;33.05;36.72;101755.41;4981998;28;20130;-74
2022/07/03 05:16:33;;;;;;;8.18;3.10;;;31.60;86.40;;;33.63;36.05;101760.75;4964389;28;20046;-74
2022/07/03 05:18:59;;;;;;;9.80;3.30;;;31.70;86.40;;;33.62;35.67;101761.78;4982490;28;20095;-74
2022/07/03 05:21:26;;;;;;;4.43;3.33;;;32.20;86.60;;;34.30;35.18;101772.94;4981981;28;20039;-74
2022/07/03 05:23:52;;;;;;;9.07;3.05;;;32.60;83.80;;;34.52;34.19;101762.72;4971494;28;20025;-74
2022/07/03 05:26:18;;;;;;;8.15;2.58;;;32.60;83.10;;;34.37;34.47;101769.41;4981289;28;20208;-74
2022/07/03 05:28:44;;;;;;;7.80;2.92;;;32.30;81.20;;;33.00;35.96;101757.00;5001486;28;20029;-75
2022/07/03 05:31:10;;;;;;;7.57;2.90;;;32.30;83.10;;;34.18;34.28;101758.16;4963418;28;20039;-74
2022/07/03 05:33:38;;;;;;;6.45;2.92;;;32.50;82.70;;;34.45;34.20;101760.97;4954413;28;20664;-74
2022/07/03 05:36:04;;;;;;;5.00;2.80;;;32.60;82.00;;;34.30;33.81;101774.84;4982513;28;20033;-74
2022/07/03 05:41:17;;;;;;;7.78;3.17;;;33.10;81.70;;;35.57;32.75;101781.41;4983208;28;20205;-74
2022/07/03 05:43:43;;;;;;;9.68;2.90;;;32.90;80.30;;;34.29;34.06;101764.94;4955607;28;20122;-74
2022/07/03 05:46:09;;;;;;;7.72;2.88;;;32.90;79.80;;;34.61;33.76;101773.47;4977961;28;20029;-74
2022/07/03 05:48:35;;;;;;;6.50;2.72;;;33.20;80.60;;;35.32;32.52;101784.78;4977045;28;20026;-74
2022/07/03 05:51:01;;;;;;;8.02;3.10;;;33.20;80.30;;;35.13;32.83;101774.69;4985727;28;20739;-74
2022/07/03 05:53:30;;;;;;;4.57;2.70;;;33.50;79.90;;;35.38;32.44;101787.72;4969105;28;20100;-74
2022/07/03 05:55:56;;;;;;;6.80;2.45;;;33.60;79.30;;;35.60;32.79;101786.47;4969257;28;20038;-74
2022/07/03 05:58:22;;;;;;;7.25;2.88;;;34.00;81.10;;;36.18;32.21;101791.25;4980585;28;20102;-74
2022/07/03 06:00:51;;;;;;;6.25;2.40;;;33.90;79.50;;;35.52;32.69;101789.41;4985928;28;20042;-74
2022/07/03 06:03:17;;;;;;;5.97;2.53;;;33.90;78.90;;;35.46;32.24;101791.09;4983963;28;20657;-74
2022/07/03 06:05:43;;;;;;;5.35;2.60;;;34.50;79.60;;;36.65;31.22;101796.53;4998840;28;20053;-74
2022/07/03 06:08:08;;;;;;;6.72;2.90;;;34.90;77.50;;;36.82;31.16;101800.44;4965862;28;20050;-74
2022/07/03 06:10:35;;;;;;;11.45;3.03;;;35.10;75.90;;;36.62;31.62;101799.72;4967060;28;20046;-74
2022/07/03 06:13:01;;;;;;;6.20;2.67;;;35.70;77.20;;;37.82;30.52;101805.19;4977368;28;20463;-74
2022/07/03 06:15:29;;;;;;;11.73;2.95;;;35.70;73.30;;;36.68;30.55;101802.44;4990154;28;20096;-74
2022/07/03 06:17:55;;;;;;;6.43;2.45;;;35.70;74.00;;;37.13;30.62;101804.31;4986027;28;20030;-74
2022/07/03 06:20:21;;;;;;;7.32;2.53;;;36.00;73.90;;;36.65;30.64;101789.13;4976673;28;20499;-75
2022/07/03 06:22:47;;;;;;;8.10;2.42;;;36.00;74.00;;;36.70;30.44;101785.75;4966365;28;20027;-73
2022/07/03 06:25:16;;;;;;;11.45;2.13;;;35.60;72.70;;;36.12;31.66;101775.63;4962355;28;20041;-74
2022/07/03 06:27:42;;;;;;;4.15;2.40;;;35.30;72.10;;;35.64;31.57;101768.59;4952827;28;20053;-74
2022/07/03 06:30:10;;;;;;;3.40;2.28;;;35.30;72.30;;;35.93;31.26;101769.97;4972559;28;20033;-74
2022/07/03 06:32:35;;;;;;;6.07;2.25;;;35.50;74.30;;;36.41;30.74;101765.19;4975127;28;20077;-74
2022/07/03 06:35:01;;;;;;;4.88;2.55;;;35.50;71.90;;;35.98;30.79;101754.78;4975498;28;20743;-74
2022/07/03 06:37:29;;;;;;;8.95;2.05;;;35.50;72.70;;;36.03;31.11;101753.09;4989582;28;20065;-74
2022/07/03 06:39:55;;;;;;;6.25;2.40;;;35.20;73.10;;;35.53;31.42;101748.13;4987638;28;20026;-74
2022/07/03 06:42:21;;;;;;;2.92;2.08;;;35.30;73.00;;;35.93;31.09;101736.25;4978283;28;20111;-74
2022/07/03 06:44:46;;;;;;;3.25;2.00;;;35.00;71.40;;;34.27;32.42;101735.06;4978823;28;20037;-75
2022/07/03 06:47:12;;;;;;;8.77;2.15;;;34.80;71.50;;;34.60;32.27;101723.41;4975672;28;20518;-74
2022/07/03 06:49:38;;;;;;;6.97;2.13;;;34.60;73.50;;;35.05;32.52;101722.84;4997600;28;20561;-74
2022/07/03 06:52:04;;;;;;;6.13;2.10;;;34.60;72.30;;;34.92;32.00;101724.50;4978413;28;20032;-74
2022/07/03 06:54:32;;;;;;;5.32;2.00;;;34.90;71.70;;;35.21;31.47;101727.94;4983795;28;20066;-74
2022/07/03 06:57:00;;;;;;;5.13;2.05;;;35.20;70.70;;;35.61;31.02;101727.88;4983280;28;20580;-73
2022/07/03 06:59:26;;;;;;;5.90;1.85;;;35.20;70.90;;;35.09;32.14;101718.63;4974159;28;20030;-73
2022/07/03 07:01:51;;;;;;;6.78;2.15;;;35.10;69.70;;;34.68;31.91;101715.00;4990806;28;20104;-74
2022/07/03 07:04:17;;;;;;;6.78;2.10;;;35.10;70.70;;;34.52;31.87;101702.56;4976870;28;20042;-74
2022/07/03 07:06:43;;;;;;;8.00;2.40;;;34.70;70.60;;;34.21;32.28;101708.56;4985387;28;20109;-74
2022/07/03 07:09:09;;;;;;;8.43;2.10;;;34.70;69.90;;;34.10;32.20;101709.97;4965405;28;20061;-74
2022/07/03 07:11:34;;;;;;;4.03;2.00;;;34.50;70.60;;;33.90;32.58;101701.66;4976205;28;20148;-74
2022/07/03 07:14:00;;;;;;;5.28;2.17;;;34.50;71.10;;;34.18;32.71;101705.41;4977781;28;20045;-74
2022/07/03 07:16:26;;;;;;;7.03;1.90;;;34.50;71.30;;;34.36;32.14;101691.97;4983760;28;20121;-74
2022/07/03 07:18:51;;;;;;;6.68;1.48;;;34.70;72.30;;;34.92;32.27;101690.84;4987742;28;20029;-74
2022/07/03 07:21:17;;;;;;;10.60;1.90;;;34.60;70.20;;;34.37;31.79;101682.75;4964180;28;20065;-73
2022/07/03 07:23:43;;;;;;;4.97;2.08;;;34.60;69.30;;;33.85;32.07;101686.94;4981629;28;20072;-76
2022/07/03 07:26:09;;;;;;;4.63;1.77;;;34.20;69.10;;;33.33;32.91;101682.78;4979229;28;20112;-74
2022/07/03 07:28:34;;;;;;;5.28;1.95;;;34.10;71.60;;;33.83;33.06;101669.91;4978281;28;20113;-73
2022/07/03 07:31:01;;;;;;;7.95;2.03;;;33.80;71.10;;;32.96;33.32;101658.38;5000999;28;20053;-74
2022/07/03 07:33:27;;;;;;;10.68;2.03;;;32.80;72.00;;;31.01;35.90;101649.78;4950496;28;20033;-74
2022/07/03 07:35:53;;;;;;;7.45;2.28;;;31.70;72.70;;;29.92;37.05;101629.97;4973237;28;20390;-74
2022/07/03 07:38:19;;;;;;;6.68;1.98;;;31.00;74.20;;;29.87;37.04;101630.50;4952668;28;20105;-74
2022/07/03 07:40:45;;;;;;;9.48;2.08;;;30.70;75.80;;;30.29;37.07;101626.53;4972052;28;20059;-74
2022/07/03 07:43:10;;;;;;;4.55;2.00;;;31.00;78.00;;;31.49;36.43;101628.59;4966939;28;20064;-74
2022/07/03 07:45:36;;;;;;;4.35;1.92;;;31.70;78.60;;;32.41;34.97;101625.31;4993568;28;20025;-74
2022/07/03 07:48:03;;;;;;;6.63;2.17;;;32.30;74.70;;;33.10;34.46;101626.59;4983385;28;20402;-74
2022/07/03 07:50:29;;;;;;;7.05;2.10;;;33.20;77.60;;;34.65;33.52;101632.56;4983922;28;20029;-74
2022/07/03 07:52:54;;;;;;;6.63;2.15;;;34.10;72.40;;;35.14;31.81;101644.97;4984521;28;20408;-75
2022/07/03 07:55:21;;;;;;;9.82;2.08;;;34.80;71.60;;;35.58;30.91;101656.28;4981996;28;20814;-74
2022/07/03 07:57:48;;;;;;;4.70;2.08;;;34.80;70.00;;;34.07;32.24;101652.97;4971061;28;20033;-74
2022/07/03 08:00:17;;;;;;;6.57;2.05;;;34.00;70.20;;;32.98;33.86;101637.19;4969858;28;20030;-74
2022/07/03 08:05:36;;;;;;;7.22;1.83;;;32.80;73.20;;;32.63;34.38;101636.25;4980401;28;20535;-74
2022/07/03 08:08:07;;;;;;;8.82;2.13;;;32.90;75.00;;;33.45;33.92;101643.81;4975605;28;22284;-74
2022/07/03 08:10:42;;;;;;;6.03;1.90;;;33.10;72.80;;;33.05;33.79;101638.09;4982690;28;20038;-74
2022/07/03 08:13:09;;;;;;;11.02;2.20;;;32.60;73.40;;;32.05;35.95;101628.94;4983094;28;20085;-74
2022/07/03 08:15:35;;;;;;;7.10;2.00;;;32.50;75.50;;;31.86;35.70;101614.00;4971458;28;20053;-74
2022/07/03 08:18:02;;;;;;;4.05;2.00;;;31.70;75.00;;;30.41;37.26;101599.78;4993389;28;20050;-74
2022/07/03 08:20:28;;;;;;;8.10;2.45;;;31.00;74.30;;;30.15;37.22;101600.09;4996668;28;20423;-74
2022/07/03 08:22:54;;;;;;;4.10;2.00;;;30.70;74.30;;;30.08;36.94;101591.00;4972923;28;20041;-74
2022/07/03 08:25:20;;;;;;;10.05;1.80;;;30.50;75.70;;;30.30;37.08;101578.47;4985369;28;20554;-74
2022/07/03 08:27:46;;;;;;;10.10;1.90;;;30.60;76.70;;;30.53;36.66;101578.50;4983862;28;20135;-73
2022/07/03 08:30:15;;;;;;;5.72;1.92;;;30.50;77.00;;;30.38;37.40;101571.13;4964703;28;20022;-74
2022/07/03 08:32:41;;;;;;;10.65;1.70;;;30.40;78.10;;;30.13;37.74;101566.84;4970582;28;20375;-74
2022/07/03 08:35:08;;;;;;;9.07;1.95;;;30.20;76.60;;;29.50;37.84;101564.09;4980727;28;20044;-74
2022/07/03 08:37:34;;;;;;;5.38;2.05;;;29.90;77.50;;;29.14;38.73;101553.72;5004843;28;20037;-74
2022/07/03 08:40:02;;;;;;;6.95;2.20;;;29.70;78.50;;;29.29;39.43;101555.69;4992364;28;20029;-74
2022/07/03 08:42:30;;;;;;;8.32;2.17;;;29.70;82.10;;;29.67;39.89;101561.31;4995774;28;20026;-74
2022/07/03 08:44:58;;;;;;;10.20;1.90;;;29.80;79.30;;;29.60;39.09;101556.59;4981803;28;20057;-73
2022/07/03 08:47:26;;;;;;;4.63;1.80;;;30.00;80.60;;;29.81;39.44;101549.75;4956860;28;20030;-73
2022/07/03 08:49:54;;;;;;;3.88;1.67;;;30.00;78.80;;;29.87;38.57;101551.75;4973265;28;20034;-74
2022/07/03 08:52:26;;;;;;;6.60;2.30;;;30.00;80.30;;;29.95;39.68;101542.72;4993797;28;20154;-74
2022/07/03 08:54:51;;;;;;;5.88;2.13;;;30.10;79.80;;;29.87;39.55;101540.91;4958348;28;20019;-74
2022/07/03 08:57:18;;;;;;;15.65;2.17;;;30.10;80.60;;;29.96;39.90;101539.81;4995299;28;20041;-74
2022/07/03 08:59:51;;;;;;;6.32;1.92;;;30.10;77.90;;;29.81;38.78;101537.03;4982405;28;20022;-74
2022/07/03 09:02:18;;;;;;;6.00;1.80;;;30.20;81.40;;;29.93;39.84;101534.72;4982752;28;20022;-74
2022/07/03 09:04:46;;;;;;;4.35;1.88;;;30.20;80.80;;;29.95;39.42;101543.53;4950512;28;20173;-74
2022/07/03 09:07:13;;;;;;;4.95;2.22;;;30.20;78.60;;;29.93;38.96;101544.75;4997164;28;20045;-74
2022/07/03 09:09:43;;;;;;;6.97;2.13;;;30.20;80.40;;;29.92;39.85;101535.78;4982610;28;20037;-74
2022/07/03 09:12:10;;;;;;;10.52;1.83;;;30.30;80.90;;;30.22;38.33;101544.91;4981980;28;20042;-75
2022/07/03 09:14:36;;;;;;;9.73;1.50;;;30.30;79.80;;;30.10;38.40;101546.34;4980974;28;20121;-74
2022/07/03 09:17:05;;;;;;;2.72;1.70;;;30.40;80.30;;;30.16;38.26;101542.91;4942811;28;20045;-74
2022/07/03 09:19:47;;;;;;;7.75;1.50;;;30.50;79.00;;;30.26;38.19;101539.97;4971879;28;20018;-75
2022/07/03 09:22:35;;;;;;;4.32;1.85;;;30.60;77.90;;;30.42;38.61;101550.72;4971343;28;20042;-75
2022/07/03 09:25:14;;;;;;;8.13;1.65;;;30.70;78.30;;;30.31;37.95;101540.28;4970629;28;20097;-75
2022/07/03 09:27:53;;;;;;;6.03;1.83;;;30.60;77.40;;;29.75;37.66;101539.63;4982592;28;20027;-75
2022/07/03 09:30:22;;;;;;;7.15;1.73;;;30.20;75.30;;;29.09;39.06;101530.81;4983045;28;20030;-74
2022/07/03 09:32:50;;;;;;;4.65;1.80;;;29.90;78.40;;;29.14;40.44;101515.78;4939193;28;20453;-75
2022/07/03 09:35:26;;;;;;;11.02;2.28;;;29.70;78.50;;;29.02;38.64;101530.69;4974119;28;20025;-74
2022/07/03 09:37:51;;;;;;;9.67;1.90;;;29.60;77.80;;;28.86;40.11;101522.59;4968014;28;20025;-75
2022/07/03 09:40:22;;;;;;;4.32;1.90;;;29.40;79.30;;;28.54;40.05;101516.19;4979762;28;20072;-74
2022/07/03 09:43:04;;;;;;;6.45;1.70;;;29.20;79.10;;;28.17;39.96;101509.41;4972828;28;20050;-74
2022/07/03 09:46:02;;;;;;;11.98;2.20;;;29.10;80.40;;;28.32;41.41;101501.44;4981584;28;20421;-74
2022/07/03 09:48:44;;;;;;;6.50;1.90;;;28.90;79.30;;;28.13;40.51;101497.22;4947396;28;20023;-75
2022/07/03 09:51:25;;;;;;;2.95;1.63;;;28.70;79.50;;;27.75;41.60;101488.66;4973542;28;20112;-74
2022/07/03 09:54:00;;;;;;;6.57;1.75;;;28.60;79.50;;;27.88;40.65;101491.75;4962857;28;20061;-75
2022/07/03 09:56:41;;;;;;;6.30;1.88;;;28.70;82.90;;;28.38;43.06;101484.50;4969876;28;21505;-74
2022/07/03 09:59:15;;;;;;;7.15;1.80;;;28.90;82.10;;;28.76;40.74;101498.38;4965905;28;20026;-74
2022/07/03 10:01:46;;;;;;;13.23;1.73;;;29.10;78.10;;;28.66;38.98;101490.47;4980663;28;20050;-74
2022/07/03 10:04:27;;;;;;;5.15;1.90;;;29.30;78.70;;;28.80;39.89;101494.31;4972234;28;20184;-75
2022/07/03 10:07:04;;;;;;;6.95;1.70;;;29.30;77.70;;;28.60;39.04;101500.09;4979332;28;20084;-74
2022/07/03 10:09:34;;;;;;;5.32;1.80;;;29.20;79.30;;;28.65;40.37;101488.75;4981303;28;20034;-74
2022/07/03 10:12:05;;;;;;;12.40;1.98;;;29.10;76.20;;;28.21;38.98;101494.50;4971035;28;20047;-75
2022/07/03 10:14:39;;;;;;;4.38;1.77;;;28.90;78.70;;;28.08;40.26;101481.47;4973921;28;20627;-74
2022/07/03 10:17:06;;;;;;;6.13;1.67;;;28.90;80.00;;;28.42;40.41;101492.13;4980549;28;20412;-75
2022/07/03 10:19:41;;;;;;;2.70;1.50;;;29.00;79.40;;;28.56;40.10;101481.66;4986053;28;20421;-75
2022/07/03 10:22:21;;;;;;;5.77;1.67;;;29.10;81.50;;;28.64;40.88;101484.38;4971574;28;20042;-74
2022/07/03 10:24:48;;;;;;;8.40;1.88;;;29.20;80.90;;;28.98;40.99;101483.25;4962512;28;20084;-75
2022/07/03 10:27:20;;;;;;;5.47;1.45;;;29.50;83.40;;;29.41;42.44;101478.34;4971423;28;20156;-75
2022/07/03 10:29:52;;;;;;;4.05;1.60;;;29.70;78.40;;;29.31;40.07;101467.75;4978630;28;20019;-75